createdAt,value
2019-03-26T00:02:28.896Z,44.00
2019-03-26T00:05:01.364Z,44.00
2019-03-26T00:07:34.280Z,43.90
2019-03-26T00:10:07.540Z,43.80
2019-03-26T00:12:40.127Z,43.70
2019-03-26T00:15:12.681Z,43.80
2019-03-26T00:17:45.302Z,43.70
2019-03-26T00:20:17.881Z,43.70
2019-03-26T00:22:50.359Z,43.70
2019-03-26T00:25:22.892Z,43.70
2019-03-26T00:27:56.976Z,43.80
2019-03-26T00:30:29.529Z,44.00
2019-03-26T00:33:02.053Z,43.80
2019-03-26T00:35:34.568Z,43.90
2019-03-26T00:38:07.130Z,43.90
2019-03-26T00:40:40.244Z,43.80
2019-03-26T00:43:12.893Z,43.90
2019-03-26T00:45:45.437Z,43.90
2019-03-26T00:48:18.006Z,43.90
2019-03-26T00:50:50.673Z,43.90
2019-03-26T00:53:23.346Z,43.90
2019-03-26T00:55:56.083Z,44.00
2019-03-26T00:58:28.589Z,43.90
2019-03-26T01:01:01.378Z,43.80
2019-03-26T01:03:34.079Z,43.80
2019-03-26T01:06:06.522Z,43.70
2019-03-26T01:08:39.262Z,43.80
2019-03-26T01:11:11.836Z,43.90
2019-03-26T01:13:44.508Z,43.70
2019-03-26T01:16:17.096Z,43.60
2019-03-26T01:18:49.614Z,43.50
2019-03-26T01:21:22.121Z,43.50
2019-03-26T01:23:54.755Z,43.60
2019-03-26T01:26:27.217Z,44.20
2019-03-26T01:28:59.720Z,43.40
2019-03-26T01:31:32.188Z,43.20
2019-03-26T01:34:04.723Z,43.80
2019-03-26T01:36:37.252Z,43.10
2019-03-26T01:39:10.073Z,42.90
2019-03-26T01:41:42.583Z,43.00
2019-03-26T01:44:15.052Z,42.90
2019-03-26T01:46:47.517Z,42.70
2019-03-26T01:49:20.079Z,42.70
2019-03-26T01:51:54.397Z,42.70
2019-03-26T01:54:26.911Z,42.70
2019-03-26T01:56:59.584Z,42.60
2019-03-26T01:59:32.075Z,42.70
2019-03-26T02:02:04.629Z,42.80
2019-03-26T02:04:37.097Z,42.90
2019-03-26T02:07:09.652Z,43.00
2019-03-26T02:09:42.109Z,43.10
2019-03-26T02:12:14.589Z,43.10
2019-03-26T02:14:48.107Z,43.10
2019-03-26T02:17:20.580Z,42.90
2019-03-26T02:19:56.439Z,42.90
2019-03-26T02:22:28.599Z,42.90
2019-03-26T02:25:01.089Z,42.90
2019-03-26T02:27:34.209Z,42.80
2019-03-26T02:30:07.181Z,42.70
2019-03-26T02:32:39.663Z,42.50
2019-03-26T02:35:18.430Z,42.50
2019-03-26T02:37:46.482Z,42.60
2019-03-26T02:40:19.123Z,42.60
2019-03-26T02:42:54.572Z,42.60
2019-03-26T02:45:27.024Z,42.50
2019-03-26T02:47:59.568Z,42.50
2019-03-26T02:50:32.063Z,42.60
2019-03-26T02:53:08.494Z,42.60
2019-03-26T02:55:38.912Z,42.70
2019-03-26T02:58:11.565Z,42.70
2019-03-26T03:00:44.057Z,42.80
2019-03-26T03:03:16.607Z,42.90
2019-03-26T03:05:50.178Z,42.90
2019-03-26T03:08:22.704Z,43.00
2019-03-26T03:10:55.206Z,42.90
2019-03-26T03:13:27.777Z,43.50
2019-03-26T03:16:00.250Z,42.90
2019-03-26T03:18:32.875Z,42.70
2019-03-26T03:21:05.840Z,42.90
2019-03-26T03:23:38.406Z,42.90
2019-03-26T03:26:10.892Z,42.90
2019-03-26T03:28:43.384Z,42.90
2019-03-26T03:31:15.865Z,42.90
2019-03-26T03:33:48.309Z,42.90
2019-03-26T03:36:20.755Z,42.90
2019-03-26T03:38:53.285Z,43.00
2019-03-26T03:41:25.880Z,43.10
2019-03-26T03:43:58.382Z,43.00
2019-03-26T03:46:31.144Z,42.90
2019-03-26T03:49:04.490Z,43.50
2019-03-26T03:51:39.246Z,42.80
2019-03-26T03:54:12.899Z,42.90
2019-03-26T03:56:48.642Z,42.80
2019-03-26T03:59:21.736Z,43.30
2019-03-26T04:01:54.222Z,42.60
2019-03-26T04:04:26.669Z,42.20
2019-03-26T04:06:59.120Z,42.60
2019-03-26T04:09:31.578Z,42.60
2019-03-26T04:12:04.092Z,42.60
2019-03-26T04:14:36.566Z,42.60
2019-03-26T04:17:09.133Z,42.60
2019-03-26T04:19:41.602Z,42.60
2019-03-26T04:22:14.242Z,42.60
2019-03-26T04:24:46.680Z,42.60
2019-03-26T04:27:19.236Z,42.50
2019-03-26T04:29:51.759Z,42.40
2019-03-26T04:32:24.284Z,42.40
2019-03-26T04:34:56.808Z,42.40
2019-03-26T04:37:29.269Z,42.40
2019-03-26T04:40:01.855Z,42.40
2019-03-26T04:42:35.787Z,42.40
2019-03-26T04:45:08.682Z,42.40
2019-03-26T04:47:41.299Z,43.10
2019-03-26T04:50:13.813Z,42.50
2019-03-26T04:52:46.349Z,42.50
2019-03-26T04:55:18.859Z,42.50
2019-03-26T04:57:51.442Z,42.50
2019-03-26T05:00:24.344Z,42.50
2019-03-26T05:02:56.884Z,41.90
2019-03-26T05:05:29.456Z,42.40
2019-03-26T05:08:02.039Z,42.40
2019-03-26T05:10:34.620Z,42.40
2019-03-26T05:13:08.539Z,42.40
2019-03-26T05:15:41.118Z,43.10
2019-03-26T05:18:13.632Z,42.40
2019-03-26T05:20:46.176Z,42.40
2019-03-26T05:23:18.833Z,43.20
2019-03-26T05:25:51.419Z,42.40
2019-03-26T05:28:23.998Z,42.50
2019-03-26T05:30:56.656Z,42.60
2019-03-26T05:33:29.128Z,42.50
2019-03-26T05:36:01.602Z,42.50
2019-03-26T05:38:34.090Z,42.50
2019-03-26T05:41:06.593Z,42.40
2019-03-26T05:43:40.538Z,42.30
2019-03-26T05:46:13.094Z,42.30
2019-03-26T05:48:45.561Z,42.20
2019-03-26T05:51:18.104Z,42.20
2019-03-26T05:53:51.711Z,42.30
2019-03-26T05:56:24.353Z,42.30
2019-03-26T05:58:57.105Z,42.30
2019-03-26T06:01:31.134Z,42.40
2019-03-26T06:04:07.094Z,42.50
2019-03-26T06:06:42.016Z,42.60
2019-03-26T06:09:19.894Z,42.70
2019-03-26T06:11:55.292Z,42.90
2019-03-26T06:14:27.866Z,42.70
2019-03-26T06:17:00.557Z,42.70
2019-03-26T06:19:33.037Z,42.70
2019-03-26T06:22:05.834Z,42.40
2019-03-26T06:24:38.300Z,42.30
2019-03-26T06:27:10.771Z,42.30
2019-03-26T06:29:43.302Z,42.20
2019-03-26T06:32:18.046Z,42.10
2019-03-26T06:34:52.979Z,42.10
2019-03-26T06:37:26.721Z,42.10
2019-03-26T06:39:59.214Z,42.80
2019-03-26T06:42:31.714Z,42.10
2019-03-26T06:45:04.469Z,42.10
2019-03-26T06:47:38.521Z,42.10
2019-03-26T06:50:12.476Z,42.10
2019-03-26T06:52:45.088Z,42.10
2019-03-26T06:55:18.705Z,42.00
2019-03-26T06:57:51.251Z,42.10
2019-03-26T07:00:33.159Z,42.10
2019-03-26T07:03:07.169Z,42.10
2019-03-26T07:05:39.716Z,42.20
2019-03-26T07:08:12.426Z,42.30
2019-03-26T07:10:44.977Z,42.20
2019-03-26T07:13:17.458Z,42.30
2019-03-26T07:15:52.858Z,42.20
2019-03-26T07:18:25.370Z,42.30
2019-03-26T07:21:01.020Z,42.30
2019-03-26T07:23:33.718Z,42.20
2019-03-26T07:26:09.099Z,42.20
2019-03-26T07:28:41.794Z,42.10
2019-03-26T07:31:14.325Z,42.10
2019-03-26T07:33:46.829Z,42.30
2019-03-26T07:36:19.515Z,42.20
2019-03-26T07:38:51.980Z,42.20
2019-03-26T07:41:28.066Z,42.60
2019-03-26T07:44:02.342Z,41.80
2019-03-26T07:46:35.116Z,42.00
2019-03-26T07:49:07.709Z,41.80
2019-03-26T07:51:40.339Z,41.80
2019-03-26T07:54:12.862Z,42.00
2019-03-26T07:56:45.382Z,42.30
2019-03-26T07:59:17.977Z,42.40
2019-03-26T08:01:50.463Z,42.60
2019-03-26T08:04:23.063Z,42.80
2019-03-26T08:06:55.571Z,43.00
2019-03-26T08:09:31.589Z,43.30
2019-03-26T08:12:02.558Z,43.60
2019-03-26T08:14:35.071Z,43.80
2019-03-26T08:17:09.779Z,44.20
2019-03-26T08:19:44.636Z,44.20
2019-03-26T08:22:17.164Z,44.10
2019-03-26T08:24:50.811Z,44.40
2019-03-26T08:27:23.293Z,44.60
2019-03-26T08:29:55.868Z,44.40
2019-03-26T08:32:28.379Z,44.30
2019-03-26T08:35:00.898Z,44.30
2019-03-26T08:37:33.481Z,44.50
2019-03-26T08:40:06.991Z,44.90
2019-03-26T08:42:39.640Z,44.90
2019-03-26T08:45:12.529Z,45.00
2019-03-26T08:47:45.357Z,45.30
2019-03-26T08:50:18.190Z,45.60
2019-03-26T08:52:52.020Z,45.60
2019-03-26T08:55:24.507Z,45.30
2019-03-26T08:57:57.053Z,45.10
2019-03-26T09:00:32.193Z,44.90
2019-03-26T09:03:04.879Z,44.90
2019-03-26T09:05:37.327Z,45.00
2019-03-26T09:08:09.976Z,45.20
2019-03-26T09:10:51.716Z,45.10
2019-03-26T09:13:16.767Z,45.20
2019-03-26T09:15:49.419Z,44.90
2019-03-26T09:18:23.277Z,44.80
2019-03-26T09:20:55.888Z,44.20
2019-03-26T09:23:28.409Z,44.20
2019-03-26T09:26:01.062Z,44.20
2019-03-26T09:28:35.479Z,44.10
2019-03-26T09:31:07.967Z,43.80
2019-03-26T09:33:40.637Z,43.80
2019-03-26T09:36:14.237Z,43.70
2019-03-26T09:38:46.721Z,43.70
2019-03-26T09:41:19.399Z,43.70
2019-03-26T09:43:52.096Z,43.90
2019-03-26T09:46:24.577Z,44.10
2019-03-26T09:48:57.193Z,44.50
2019-03-26T09:51:29.817Z,44.50
2019-03-26T09:54:02.562Z,44.40
2019-03-26T09:56:35.118Z,44.40
2019-03-26T09:59:07.629Z,44.40
2019-03-26T10:01:40.269Z,44.30
2019-03-26T10:04:12.922Z,44.40
2019-03-26T10:06:47.515Z,44.70
2019-03-26T10:09:20.101Z,44.90
2019-03-26T10:11:52.683Z,44.80
2019-03-26T10:14:25.185Z,44.80
2019-03-26T10:16:57.775Z,44.90
2019-03-26T10:19:30.790Z,45.00
2019-03-26T10:22:03.515Z,46.00
2019-03-26T10:24:36.213Z,45.90
2019-03-26T10:27:08.709Z,45.70
2019-03-26T10:29:41.671Z,45.80
2019-03-26T10:32:14.222Z,46.20
2019-03-26T10:34:46.765Z,46.10
2019-03-26T10:37:19.733Z,46.50
2019-03-26T10:39:52.457Z,47.20
2019-03-26T10:42:24.939Z,47.40
2019-03-26T10:44:57.624Z,47.20
2019-03-26T10:47:30.082Z,46.90
2019-03-26T10:50:02.742Z,46.30
2019-03-26T10:52:35.198Z,45.50
2019-03-26T10:55:08.178Z,45.20
2019-03-26T10:57:40.780Z,44.80
2019-03-26T11:00:13.500Z,44.40
2019-03-26T11:02:46.208Z,44.30
2019-03-26T11:05:18.834Z,43.00
2019-03-26T11:07:51.317Z,44.30
2019-03-26T11:10:23.819Z,44.40
2019-03-26T11:12:56.283Z,44.20
2019-03-26T11:15:28.933Z,44.10
2019-03-26T11:18:01.459Z,43.50
2019-03-26T11:20:33.979Z,42.90
2019-03-26T11:23:06.532Z,42.60
2019-03-26T11:25:39.029Z,42.50
2019-03-26T11:28:11.509Z,42.50
2019-03-26T11:30:44.060Z,42.10
2019-03-26T11:33:16.767Z,41.90
2019-03-26T11:35:49.821Z,41.70
2019-03-26T11:38:22.318Z,41.50
2019-03-26T11:40:54.827Z,41.20
2019-03-26T11:43:27.304Z,41.00
2019-03-26T11:45:59.907Z,40.80
2019-03-26T11:48:32.660Z,40.80
2019-03-26T11:51:05.257Z,41.00
2019-03-26T11:53:37.804Z,40.90
2019-03-26T11:56:10.488Z,40.90
2019-03-26T11:58:43.078Z,40.90
2019-03-26T12:01:15.811Z,40.90
2019-03-26T12:03:48.409Z,40.90
2019-03-26T12:06:21.037Z,41.00
2019-03-26T12:08:53.723Z,41.30
2019-03-26T12:11:26.191Z,41.30
2019-03-26T12:14:00.242Z,41.20
2019-03-26T12:16:32.742Z,41.20
2019-03-26T12:19:05.303Z,41.30
2019-03-26T12:21:37.818Z,41.50
2019-03-26T12:24:13.383Z,41.70
2019-03-26T12:26:45.895Z,42.10
2019-03-26T12:29:18.521Z,41.30
2019-03-26T12:31:52.515Z,41.30
2019-03-26T12:34:25.336Z,41.10
2019-03-26T12:36:57.818Z,41.20
2019-03-26T12:39:30.420Z,41.30
2019-03-26T12:42:02.958Z,41.40
2019-03-26T12:44:37.726Z,41.20
2019-03-26T12:47:10.333Z,42.20
2019-03-26T12:49:42.855Z,41.70
2019-03-26T12:52:15.527Z,41.80
2019-03-26T12:54:48.027Z,42.10
2019-03-26T12:57:20.560Z,42.40
2019-03-26T12:59:53.245Z,42.30
2019-03-26T13:02:25.984Z,42.30
2019-03-26T13:04:58.720Z,42.60
2019-03-26T13:07:31.189Z,43.20
2019-03-26T13:10:13.542Z,43.30
2019-03-26T13:12:39.061Z,43.30
2019-03-26T13:15:11.992Z,43.40
2019-03-26T13:17:44.736Z,43.70
2019-03-26T13:20:17.363Z,43.80
2019-03-26T13:22:49.967Z,44.10
2019-03-26T13:25:22.598Z,43.60
2019-03-26T13:27:55.113Z,43.50
2019-03-26T13:30:27.632Z,43.60
2019-03-26T13:33:00.197Z,43.70
2019-03-26T13:35:32.775Z,43.90
2019-03-26T13:38:05.369Z,44.60
2019-03-26T13:40:37.850Z,43.80
2019-03-26T13:43:12.297Z,43.60
2019-03-26T13:45:44.833Z,43.30
2019-03-26T13:48:17.389Z,43.20
2019-03-26T13:50:49.921Z,43.30
2019-03-26T13:53:23.549Z,43.10
2019-03-26T13:55:56.086Z,42.90
2019-03-26T13:58:28.724Z,42.80
2019-03-26T14:01:01.281Z,42.90
2019-03-26T14:03:34.003Z,43.00
2019-03-26T14:06:06.586Z,43.10
2019-03-26T14:08:39.187Z,43.20
2019-03-26T14:11:11.847Z,43.00
2019-03-26T14:13:44.555Z,43.20
2019-03-26T14:16:17.154Z,43.60
2019-03-26T14:18:49.783Z,43.40
2019-03-26T14:21:22.367Z,43.40
2019-03-26T14:23:55.100Z,43.50
2019-03-26T14:26:27.734Z,43.70
2019-03-26T14:29:00.280Z,43.80
2019-03-26T14:31:32.865Z,44.10
2019-03-26T14:34:07.789Z,44.30
2019-03-26T14:36:40.342Z,44.60
2019-03-26T14:39:12.976Z,44.80
2019-03-26T14:41:45.732Z,45.00
2019-03-26T14:44:18.427Z,45.10
2019-03-26T14:46:51.042Z,45.10
2019-03-26T14:49:23.732Z,45.30
2019-03-26T14:51:56.457Z,45.60
2019-03-26T14:54:28.997Z,45.40
2019-03-26T14:57:01.515Z,45.80
2019-03-26T14:59:34.318Z,46.00
2019-03-26T15:02:06.988Z,46.40
2019-03-26T15:04:39.733Z,46.20
2019-03-26T15:07:12.297Z,46.20
2019-03-26T15:09:44.764Z,46.10
2019-03-26T15:12:18.629Z,45.50
2019-03-26T15:14:51.261Z,45.90
2019-03-26T15:17:23.911Z,45.70
2019-03-26T15:19:56.524Z,45.80
2019-03-26T15:22:29.169Z,45.70
2019-03-26T15:25:03.556Z,45.80
2019-03-26T15:27:37.693Z,45.90
2019-03-26T15:30:11.305Z,45.60
2019-03-26T15:32:43.825Z,45.50
2019-03-26T15:35:16.472Z,45.40
2019-03-26T15:37:48.968Z,45.40
2019-03-26T15:40:21.805Z,45.20
2019-03-26T15:42:54.541Z,45.30
2019-03-26T15:45:27.028Z,45.70
2019-03-26T15:47:59.636Z,45.40
2019-03-26T15:50:46.538Z,45.00
2019-03-26T15:53:19.298Z,44.90
2019-03-26T15:55:51.790Z,44.70
2019-03-26T15:58:24.403Z,44.70
2019-03-26T16:00:57.076Z,44.60
2019-03-26T16:03:29.720Z,44.50
2019-03-26T16:06:04.001Z,44.50
2019-03-26T16:08:36.590Z,44.50
2019-03-26T16:11:09.195Z,44.60
2019-03-26T16:13:41.721Z,44.50
2019-03-26T16:16:14.374Z,44.70
2019-03-26T16:18:47.025Z,44.60
2019-03-26T16:21:19.783Z,44.40
2019-03-26T16:23:52.425Z,44.60
2019-03-26T16:26:26.117Z,44.80
2019-03-26T16:28:58.752Z,44.60
2019-03-26T16:31:31.361Z,44.60
2019-03-26T16:34:04.026Z,44.50
2019-03-26T16:36:36.536Z,44.50
2019-03-26T16:39:10.269Z,44.50
2019-03-26T16:41:48.987Z,44.50
2019-03-26T16:44:17.294Z,44.40
2019-03-26T16:46:49.899Z,44.40
2019-03-26T16:49:22.559Z,44.20
2019-03-26T16:51:55.199Z,44.20
2019-03-26T16:54:27.714Z,44.00
2019-03-26T16:57:00.293Z,43.90
2019-03-26T16:59:34.977Z,44.00
2019-03-26T17:02:07.828Z,44.10
2019-03-26T17:04:40.409Z,44.20
2019-03-26T17:07:13.088Z,44.00
2019-03-26T17:09:45.574Z,43.90
2019-03-26T17:12:19.739Z,44.00
2019-03-26T17:14:52.562Z,43.80
2019-03-26T17:17:27.238Z,43.60
2019-03-26T17:19:59.872Z,43.70
2019-03-26T17:22:33.605Z,43.60
2019-03-26T17:25:06.822Z,43.00
2019-03-26T17:27:39.472Z,43.40
2019-03-26T17:30:13.790Z,43.40
2019-03-26T17:32:46.499Z,43.40
2019-03-26T17:35:19.075Z,43.40
2019-03-26T17:37:59.595Z,43.40
2019-03-26T17:40:26.164Z,43.40
2019-03-26T17:42:58.907Z,43.30
2019-03-26T17:45:31.645Z,43.60
2019-03-26T17:48:06.157Z,43.40
2019-03-26T17:50:39.781Z,43.40
2019-03-26T17:53:12.452Z,43.30
2019-03-26T17:55:44.955Z,43.40
2019-03-26T17:58:17.492Z,43.40
2019-03-26T18:00:50.192Z,43.50
2019-03-26T18:03:26.824Z,43.50
2019-03-26T18:05:57.252Z,43.50
2019-03-26T18:08:29.944Z,43.70
2019-03-26T18:11:02.678Z,43.70
2019-03-26T18:13:35.437Z,43.70
2019-03-26T18:16:08.011Z,43.80
2019-03-26T18:18:40.544Z,44.00
2019-03-26T18:21:13.130Z,43.90
2019-03-26T18:23:46.683Z,44.10
2019-03-26T18:26:20.340Z,44.10
2019-03-26T18:28:55.612Z,44.20
2019-03-26T18:31:29.551Z,44.20
2019-03-26T18:34:02.682Z,44.20
2019-03-26T18:36:35.465Z,44.30
2019-03-26T18:39:10.084Z,44.20
2019-03-26T18:41:42.644Z,44.20
2019-03-26T18:44:15.218Z,44.40
2019-03-26T18:46:48.033Z,44.40
2019-03-26T18:49:20.715Z,44.30
2019-03-26T18:51:53.463Z,44.50
2019-03-26T18:54:26.022Z,44.70
2019-03-26T18:56:58.646Z,44.50
2019-03-26T18:59:31.361Z,44.50
2019-03-26T19:02:04.982Z,44.30
2019-03-26T19:04:37.775Z,44.30
2019-03-26T19:07:10.654Z,44.30
2019-03-26T19:09:43.465Z,44.30
2019-03-26T19:12:16.042Z,44.60
2019-03-26T19:14:51.159Z,44.50
2019-03-26T19:17:24.907Z,44.50
2019-03-26T19:19:58.503Z,44.70
2019-03-26T19:22:32.513Z,44.60
2019-03-26T19:25:05.247Z,44.50
2019-03-26T19:27:37.900Z,44.80
2019-03-26T19:30:11.356Z,44.90
2019-03-26T19:32:44.050Z,44.90
2019-03-26T19:35:16.844Z,44.60
2019-03-26T19:37:50.719Z,44.60
2019-03-26T19:40:23.365Z,44.60
2019-03-26T19:42:56.064Z,44.90
2019-03-26T19:45:28.619Z,45.10
2019-03-26T19:48:01.282Z,45.10
2019-03-26T19:50:33.839Z,44.90
2019-03-26T19:53:06.375Z,44.70
2019-03-26T19:55:38.928Z,44.70
2019-03-26T19:58:11.675Z,44.80
2019-03-26T20:00:45.219Z,44.60
2019-03-26T20:03:19.292Z,44.50
2019-03-26T20:05:52.084Z,44.50
2019-03-26T20:08:26.132Z,44.50
2019-03-26T20:11:00.027Z,44.40
2019-03-26T20:13:33.156Z,44.30
2019-03-26T20:16:05.905Z,44.50
2019-03-26T20:18:38.600Z,44.60
2019-03-26T20:21:11.358Z,44.40
2019-03-26T20:23:44.076Z,44.30
2019-03-26T20:26:16.736Z,44.30
2019-03-26T20:28:49.517Z,44.30
2019-03-26T20:31:22.296Z,44.30
2019-03-26T20:33:54.999Z,44.20
2019-03-26T20:36:27.633Z,44.30
2019-03-26T20:39:00.346Z,44.50
2019-03-26T20:41:33.044Z,44.50
2019-03-26T20:44:05.750Z,44.40
2019-03-26T20:46:38.458Z,44.60
2019-03-26T20:49:11.158Z,44.80
2019-03-26T20:51:43.707Z,44.70
2019-03-26T20:54:16.384Z,44.60
2019-03-26T20:56:48.989Z,44.70
2019-03-26T20:59:21.671Z,44.70
2019-03-26T21:01:54.284Z,45.00
2019-03-26T21:04:26.879Z,44.90
2019-03-26T21:06:59.577Z,44.90
2019-03-26T21:09:32.872Z,44.80
2019-03-26T21:12:06.761Z,45.00
2019-03-26T21:14:39.272Z,45.10
2019-03-26T21:17:11.930Z,45.20
2019-03-26T21:19:44.445Z,45.10
2019-03-26T21:22:17.115Z,45.10
2019-03-26T21:24:49.947Z,45.00
2019-03-26T21:27:22.556Z,45.30
2019-03-26T21:29:55.270Z,45.10
2019-03-26T21:32:29.276Z,45.10
2019-03-26T21:35:01.959Z,44.90
2019-03-26T21:37:34.505Z,45.00
2019-03-26T21:40:07.726Z,44.90
2019-03-26T21:42:40.266Z,45.00
2019-03-26T21:45:13.953Z,45.20
2019-03-26T21:47:46.510Z,45.10
2019-03-26T21:50:19.374Z,45.00
2019-03-26T21:52:51.910Z,44.90
2019-03-26T21:55:25.592Z,45.00
2019-03-26T21:57:58.390Z,45.00
2019-03-26T22:00:30.990Z,44.90
2019-03-26T22:03:03.749Z,44.90
2019-03-26T22:05:36.409Z,44.90
2019-03-26T22:08:10.188Z,44.80
2019-03-26T22:10:44.674Z,44.90
2019-03-26T22:13:17.431Z,44.80
2019-03-26T22:15:50.965Z,44.80
2019-03-26T22:18:23.589Z,44.80
2019-03-26T22:20:56.165Z,44.90
2019-03-26T22:23:28.851Z,44.90
2019-03-26T22:26:01.482Z,45.00
2019-03-26T22:28:34.196Z,44.90
2019-03-26T22:31:06.847Z,44.80
2019-03-26T22:33:39.375Z,44.90
2019-03-26T22:36:13.518Z,44.90
2019-03-26T22:38:46.070Z,44.90
2019-03-26T22:41:18.720Z,45.20
2019-03-26T22:43:54.923Z,45.00
2019-03-26T22:46:26.707Z,45.10
2019-03-26T22:48:59.350Z,45.00
2019-03-26T22:51:31.979Z,45.10
2019-03-26T22:54:04.714Z,45.20
2019-03-26T22:56:37.424Z,45.40
2019-03-26T22:59:09.916Z,45.40
2019-03-26T23:01:42.437Z,45.30
2019-03-26T23:04:15.074Z,45.30
2019-03-26T23:06:49.238Z,45.20
2019-03-26T23:09:21.928Z,45.40
2019-03-26T23:11:54.522Z,45.60
2019-03-26T23:14:28.305Z,45.60
2019-03-26T23:17:00.801Z,45.60
2019-03-26T23:19:35.436Z,45.70
2019-03-26T23:22:09.060Z,45.90
2019-03-26T23:24:42.713Z,46.00
2019-03-26T23:27:15.342Z,46.20
2019-03-26T23:29:47.886Z,46.20
2019-03-26T23:32:20.648Z,46.20
2019-03-26T23:34:53.228Z,46.50
2019-03-26T23:37:27.570Z,46.60
2019-03-26T23:40:01.549Z,46.70
2019-03-26T23:42:34.370Z,46.90
2019-03-26T23:45:08.055Z,46.90
2019-03-26T23:47:40.590Z,46.90
2019-03-26T23:50:13.558Z,47.00
2019-03-26T23:52:46.225Z,47.10
2019-03-26T23:55:18.769Z,47.80
2019-03-26T23:57:51.267Z,47.00
